In Rescue
 
Open Full Screen Window  High Contrast Mode
Wind Gusting 00 knots
10
March 04, 2021 3:35 AM EST
Weather Information
Wind Direction
  360 °
Wind Speed
  10 kt (12 mph)
Wind Gust
  00 kt (0 mph)
Altimeter
30.24 in
Visibility
10 SM
Temperature
-05° C
23° F
Dewpoint
-10° C
14° F
Humidity
68%
1hr Rain Fall
00.00 in.
24hr Rain Fall
00.00 in.
Sky Condition
Overcast @ 2,800 ft
MVFR

METAR KISQ 040835Z AUTO 36010KT 10SM OVC028 M05/M10 A3024 RMK AO2 T10521100

FAA Disclaimer: The data displayed is for advisory purposes only and is not to be used for flight planning or operations.